Time;durP1;ratioP1;P1;durP2;ratioP2;P2;SDS_P1;SDS_P2;PMS_P1;PMS_P2;Temp;Humidity;BMP_temperature;BMP_pressure;BME280_temperature;BME280_humidity;BME280_pressure;Samples;Min_cycle;Max_cycle;Signal;HPM_P1;HPM_P2
2023/11/10 00:01:18;;;;;;;5.53;2.27;;;;;;;8.66;81.87;99706.66;5033388;28;20236;-71
2023/11/10 00:03:44;;;;;;;3.37;2.43;;;;;;;8.64;81.97;99694.91;5029888;28;20229;-71
2023/11/10 00:06:10;;;;;;;3.83;2.47;;;;;;;8.60;81.94;99701.94;5031106;28;20213;-70
2023/11/10 00:08:38;;;;;;;4.73;2.57;;;;;;;8.58;82.21;99693.59;5030298;28;20896;-70
2023/11/10 00:11:05;;;;;;;3.70;2.30;;;;;;;8.55;82.01;99695.03;5030380;28;20590;-70
2023/11/10 00:13:31;;;;;;;2.90;2.17;;;;;;;8.53;81.83;99691.19;5028393;28;20316;-70
2023/11/10 00:15:58;;;;;;;4.77;2.40;;;;;;;8.50;81.99;99682.09;5029673;28;20212;-71
2023/11/10 00:18:24;;;;;;;5.37;2.60;;;;;;;8.47;82.19;99674.88;5028996;28;20665;-71
2023/11/10 00:20:50;;;;;;;2.90;2.47;;;;;;;8.44;82.25;99683.44;5036782;28;20228;-71
2023/11/10 00:23:18;;;;;;;3.27;2.03;;;;;;;8.42;82.50;99683.00;5027052;28;20229;-70
2023/11/10 00:25:45;;;;;;;3.93;2.30;;;;;;;8.39;82.11;99681.03;5030612;28;20671;-70
2023/11/10 00:28:12;;;;;;;4.80;2.53;;;;;;;8.36;82.08;99679.09;5025321;28;20204;-70
2023/11/10 00:30:39;;;;;;;3.17;2.27;;;;;;;8.34;81.78;99677.88;5013426;28;20697;-70
2023/11/10 00:33:05;;;;;;;5.37;2.47;;;;;;;8.33;82.38;99676.34;5015280;28;20292;-69
2023/11/10 00:35:31;;;;;;;4.63;2.40;;;;;;;8.28;82.18;99679.22;5012853;28;20221;-71
2023/11/10 00:37:58;;;;;;;4.33;2.33;;;;;;;8.24;82.37;99680.97;5031128;28;20203;-69
2023/11/10 00:40:24;;;;;;;5.97;2.63;;;;;;;8.23;81.88;99684.69;5029690;28;20598;-71
2023/11/10 00:42:52;;;;;;;2.20;2.00;;;;;;;8.17;82.20;99681.47;5029988;28;20196;-71
2023/11/10 00:45:18;;;;;;;3.20;2.07;;;;;;;8.15;82.25;99678.44;5028234;28;21141;-71
2023/11/10 00:47:44;;;;;;;4.73;2.80;;;;;;;8.13;82.42;99674.59;5032840;28;20278;-71
2023/11/10 00:50:11;;;;;;;3.63;2.50;;;;;;;8.11;82.44;99669.66;5012846;28;20287;-70
2023/11/10 00:52:38;;;;;;;4.13;2.70;;;;;;;8.07;82.73;99668.03;5031875;28;20230;-71
2023/11/10 00:55:06;;;;;;;3.63;2.10;;;;;;;8.06;82.47;99669.09;5031285;28;20880;-71
2023/11/10 00:57:32;;;;;;;3.73;2.40;;;;;;;8.02;83.03;99663.75;5032744;28;20247;-71
2023/11/10 01:00:00;;;;;;;5.80;2.77;;;;;;;7.99;82.59;99659.16;5012307;28;20228;-69
2023/11/10 01:02:27;;;;;;;4.17;2.30;;;;;;;7.98;82.44;99654.22;5014440;28;20234;-71
2023/11/10 01:04:53;;;;;;;3.03;2.27;;;;;;;7.94;82.49;99658.59;5030328;28;20234;-71
2023/11/10 01:07:20;;;;;;;4.30;2.73;;;;;;;7.91;82.82;99664.50;5031272;28;20208;-69
2023/11/10 01:09:46;;;;;;;3.43;2.60;;;;;;;7.89;83.07;99664.88;5017125;28;20211;-71
2023/11/10 01:12:12;;;;;;;4.23;2.63;;;;;;;7.86;82.98;99657.63;5029588;28;20203;-70
2023/11/10 01:14:39;;;;;;;5.57;2.70;;;;;;;7.83;83.16;99644.38;5031470;28;20772;-71
2023/11/10 01:17:06;;;;;;;3.60;2.80;;;;;;;7.81;82.74;99646.59;5031351;28;20222;-71
2023/11/10 01:19:33;;;;;;;4.07;2.47;;;;;;;7.78;82.87;99641.97;5033184;28;20208;-71
2023/11/10 01:22:00;;;;;;;4.70;2.60;;;;;;;7.75;83.13;99643.41;5012993;28;20227;-71
2023/11/10 01:24:26;;;;;;;4.67;2.90;;;;;;;7.71;83.22;99639.88;5031579;28;20223;-70
2023/11/10 01:26:52;;;;;;;2.77;2.23;;;;;;;7.68;83.20;99647.66;5034018;28;20565;-71
2023/11/10 01:29:19;;;;;;;3.80;2.30;;;;;;;7.65;83.25;99643.06;5015147;28;20299;-71
2023/11/10 01:31:45;;;;;;;4.53;2.40;;;;;;;7.61;83.46;99648.19;5016654;28;20302;-72
2023/11/10 01:34:16;;;;;;;4.03;2.30;;;;;;;7.59;83.66;99637.28;5017319;28;20231;-71
2023/11/10 01:36:44;;;;;;;6.33;2.90;;;;;;;7.57;83.12;99634.19;5015935;28;20553;-71
2023/11/10 01:39:11;;;;;;;3.87;2.23;;;;;;;7.56;83.71;99629.28;5012538;28;20318;-71
2023/11/10 01:41:39;;;;;;;3.80;2.80;;;;;;;7.54;83.97;99637.47;5033618;28;20650;-71
2023/11/10 01:44:06;;;;;;;4.97;2.47;;;;;;;7.53;84.50;99633.31;5018779;28;20248;-70
2023/11/10 01:46:41;;;;;;;3.17;2.50;;;;;;;7.51;84.58;99627.63;5017095;28;20574;-71
2023/11/10 01:49:09;;;;;;;5.10;2.83;;;;;;;7.50;85.33;99623.47;5034927;28;20207;-71
2023/11/10 01:51:37;;;;;;;3.87;3.17;;;;;;;7.49;85.30;99629.03;5018980;28;20206;-71
2023/11/10 01:54:05;;;;;;;4.30;2.90;;;;;;;7.50;85.67;99622.72;5015457;28;20329;-70
2023/11/10 01:56:33;;;;;;;4.63;2.83;;;;;;;7.49;85.22;99615.91;5036245;28;20685;-71
2023/11/10 01:59:00;;;;;;;4.90;3.10;;;;;;;7.47;85.28;99610.22;5017288;28;20208;-70
2023/11/10 02:01:26;;;;;;;4.60;3.23;;;;;;;7.45;84.70;99599.28;5018609;28;20227;-71
2023/11/10 02:03:53;;;;;;;5.07;3.03;;;;;;;7.41;85.12;99601.78;5031316;28;20231;-71
2023/11/10 02:06:19;;;;;;;4.10;3.07;;;;;;;7.39;85.05;99598.72;5019786;28;20203;-71
2023/11/10 02:08:47;;;;;;;4.70;3.20;;;;;;;7.36;85.18;99604.63;5016151;28;20220;-71
2023/11/10 02:11:13;;;;;;;4.73;3.03;;;;;;;7.33;84.72;99604.50;5035982;28;20269;-68
2023/11/10 02:13:40;;;;;;;6.53;3.27;;;;;;;7.30;85.12;99605.94;5032389;28;20305;-71
2023/11/10 02:16:06;;;;;;;4.23;3.00;;;;;;;7.26;84.97;99599.03;5032355;28;20589;-70
2023/11/10 02:18:33;;;;;;;5.40;3.40;;;;;;;7.23;84.72;99615.44;5018054;28;20284;-70
2023/11/10 02:21:00;;;;;;;6.23;2.77;;;;;;;7.20;84.99;99618.72;5015844;28;20223;-68
2023/11/10 02:23:28;;;;;;;6.57;3.20;;;;;;;7.18;85.80;99615.66;5026530;28;20362;-70
2023/11/10 02:25:55;;;;;;;4.33;3.23;;;;;;;7.16;85.48;99620.47;5018494;28;20569;-70
2023/11/10 02:28:23;;;;;;;6.73;3.57;;;;;;;7.13;85.44;99607.97;5030992;28;20210;-69
2023/11/10 02:30:49;;;;;;;6.33;3.33;;;;;;;7.12;85.86;99609.06;5015410;28;20233;-69
2023/11/10 02:33:15;;;;;;;4.30;3.20;;;;;;;7.09;85.23;99602.63;5032759;28;20232;-70
2023/11/10 02:35:42;;;;;;;6.43;3.57;;;;;;;7.07;85.88;99599.56;5032361;28;20198;-67
2023/11/10 02:38:08;;;;;;;4.97;3.23;;;;;;;7.03;86.31;99601.31;5031942;28;20208;-69
2023/11/10 02:40:34;;;;;;;10.00;3.20;;;;;;;7.01;85.15;99592.22;5012969;28;20230;-68
2023/11/10 02:43:02;;;;;;;4.83;3.50;;;;;;;6.98;85.90;99593.63;5031208;28;20250;-69
2023/11/10 02:45:28;;;;;;;4.10;3.13;;;;;;;6.96;86.58;99587.19;5031282;28;20203;-70
2023/11/10 02:47:55;;;;;;;6.73;3.87;;;;;;;6.95;86.33;99583.03;5018254;28;20361;-69
2023/11/10 02:50:21;;;;;;;5.50;3.70;;;;;;;6.91;86.21;99582.91;5011983;28;20569;-67
2023/11/10 02:52:47;;;;;;;4.57;3.70;;;;;;;6.92;87.22;99579.19;5016139;28;20207;-69
2023/11/10 02:55:14;;;;;;;6.10;4.27;;;;;;;6.92;86.71;99584.44;5016886;28;21010;-70
2023/11/10 02:57:40;;;;;;;6.07;3.83;;;;;;;6.93;86.44;99570.22;5033759;28;20569;-69
2023/11/10 03:00:09;;;;;;;7.93;4.70;;;;;;;6.93;87.42;99566.81;5036072;28;20219;-70
2023/11/10 03:02:36;;;;;;;6.03;4.27;;;;;;;6.94;87.53;99563.88;5015109;28;20227;-71
2023/11/10 03:05:03;;;;;;;6.60;4.63;;;;;;;6.94;87.58;99563.88;5031047;28;20191;-69
2023/11/10 03:07:29;;;;;;;5.53;4.33;;;;;;;6.97;87.09;99547.50;5030762;28;20542;-69
2023/11/10 03:09:58;;;;;;;6.50;4.20;;;;;;;6.99;86.84;99549.78;5017138;28;20681;-72
2023/11/10 03:12:24;;;;;;;9.40;4.53;;;;;;;7.00;86.59;99546.06;5019009;28;20619;-69
2023/11/10 03:14:51;;;;;;;6.40;4.20;;;;;;;7.01;86.40;99550.22;5016138;28;20308;-68
2023/11/10 03:17:19;;;;;;;7.27;4.23;;;;;;;7.02;87.04;99542.03;5031986;28;20222;-69
2023/11/10 03:19:45;;;;;;;5.40;4.07;;;;;;;7.04;87.26;99539.84;5016082;28;20739;-69
2023/11/10 03:22:11;;;;;;;7.30;4.80;;;;;;;7.06;86.74;99540.28;5015088;28;20813;-68
2023/11/10 03:24:38;;;;;;;6.30;4.60;;;;;;;7.08;86.69;99539.94;5033357;28;20234;-70
2023/11/10 03:27:04;;;;;;;6.83;4.13;;;;;;;7.09;87.43;99541.50;5032401;28;20561;-70
2023/11/10 03:29:31;;;;;;;4.47;3.57;;;;;;;7.11;87.18;99540.06;5030958;28;20473;-69
2023/11/10 03:31:58;;;;;;;7.57;3.83;;;;;;;7.14;86.69;99541.28;5015268;28;20296;-70
2023/11/10 03:34:26;;;;;;;5.33;3.83;;;;;;;7.16;86.84;99539.88;5007966;28;20243;-70
2023/11/10 03:36:53;;;;;;;5.90;3.77;;;;;;;7.18;86.59;99536.88;5034515;28;20226;-69
2023/11/10 03:39:20;;;;;;;5.97;4.33;;;;;;;7.19;86.63;99531.31;5031786;28;20624;-70
2023/11/10 03:41:46;;;;;;;7.30;3.97;;;;;;;7.22;87.30;99537.78;5031064;28;20227;-69
2023/11/10 03:44:13;;;;;;;6.67;4.30;;;;;;;7.23;87.05;99524.31;5030013;28;20235;-70
2023/11/10 03:46:39;;;;;;;6.20;3.97;;;;;;;7.27;87.23;99527.06;5029937;28;20277;-69
2023/11/10 03:49:06;;;;;;;4.03;3.53;;;;;;;7.28;86.81;99531.22;5029580;28;20206;-69
2023/11/10 03:51:34;;;;;;;6.93;4.37;;;;;;;7.28;87.02;99526.72;5034115;28;20536;-70
2023/11/10 03:54:00;;;;;;;5.70;3.63;;;;;;;7.32;86.96;99527.63;5030892;28;20243;-70
2023/11/10 03:56:28;;;;;;;5.93;3.60;;;;;;;7.34;86.90;99533.28;5030630;28;20962;-70
2023/11/10 03:58:55;;;;;;;7.27;4.10;;;;;;;7.35;86.94;99531.44;5030665;28;20278;-70
2023/11/10 04:01:21;;;;;;;5.73;3.77;;;;;;;7.36;86.65;99535.59;5032575;28;20511;-70
2023/11/10 04:03:47;;;;;;;5.43;3.90;;;;;;;7.36;86.73;99546.09;5032366;28;20226;-69
2023/11/10 04:06:14;;;;;;;9.23;3.93;;;;;;;7.36;86.04;99538.22;5029101;28;20606;-70
2023/11/10 04:08:41;;;;;;;4.40;3.97;;;;;;;7.34;86.20;99535.91;5032422;28;20207;-70
2023/11/10 04:11:09;;;;;;;5.27;3.73;;;;;;;7.34;86.31;99537.75;5028800;28;20210;-69
2023/11/10 04:13:35;;;;;;;5.73;3.60;;;;;;;7.33;85.87;99547.53;5029930;28;20306;-68
2023/11/10 04:16:02;;;;;;;4.70;3.63;;;;;;;7.32;85.88;99540.75;5031979;28;20208;-68
2023/11/10 04:18:28;;;;;;;6.27;3.63;;;;;;;7.31;85.88;99543.69;5029830;28;20258;-70
2023/11/10 04:20:56;;;;;;;5.80;3.13;;;;;;;7.30;86.62;99536.91;5032978;28;20585;-70
2023/11/10 04:23:22;;;;;;;5.20;3.60;;;;;;;7.29;86.41;99532.72;5031406;28;20280;-68
2023/11/10 04:25:50;;;;;;;6.80;3.60;;;;;;;7.28;85.83;99545.13;5033835;28;20214;-70
2023/11/10 04:28:16;;;;;;;5.47;3.60;;;;;;;7.28;86.34;99541.72;5029053;28;20216;-70
2023/11/10 04:30:42;;;;;;;4.77;3.30;;;;;;;7.27;86.33;99543.59;5033566;28;20200;-69
2023/11/10 04:33:09;;;;;;;4.63;3.13;;;;;;;7.28;86.27;99536.47;5010810;28;20226;-70
2023/11/10 04:35:35;;;;;;;5.40;3.70;;;;;;;7.29;85.94;99546.63;5028012;28;20204;-70
2023/11/10 04:38:02;;;;;;;4.13;3.50;;;;;;;7.29;86.63;99540.59;5032616;28;20222;-70
2023/11/10 04:40:28;;;;;;;5.13;3.53;;;;;;;7.30;86.25;99531.66;5030425;28;21135;-70
2023/11/10 04:42:57;;;;;;;6.37;3.23;;;;;;;7.30;85.87;99529.03;5031202;28;20234;-70
2023/11/10 04:45:26;;;;;;;7.50;3.67;;;;;;;7.32;86.64;99532.09;5031050;28;20207;-70
2023/11/10 04:47:53;;;;;;;4.73;3.60;;;;;;;7.31;86.34;99531.31;5014969;28;20298;-69
2023/11/10 04:50:19;;;;;;;7.90;5.20;;;;;;;7.32;86.05;99535.50;5031688;28;20631;-70
2023/11/10 04:52:46;;;;;;;4.10;3.07;;;;;;;7.34;86.41;99530.66;5032227;28;20217;-70
2023/11/10 04:55:12;;;;;;;5.30;3.30;;;;;;;7.36;86.06;99538.22;5009979;28;20226;-70
2023/11/10 04:57:39;;;;;;;4.07;2.97;;;;;;;7.37;86.06;99537.91;5030984;28;20227;-67
2023/11/10 05:00:08;;;;;;;7.47;3.10;;;;;;;7.39;85.32;99532.28;5035032;28;20215;-69
2023/11/10 05:02:35;;;;;;;3.87;3.10;;;;;;;7.40;85.64;99533.84;5033972;28;20218;-69
2023/11/10 05:05:01;;;;;;;5.77;3.20;;;;;;;7.42;85.86;99534.28;5033011;28;20286;-68
2023/11/10 05:07:27;;;;;;;7.47;3.30;;;;;;;7.44;86.51;99542.56;5032111;28;20258;-69
2023/11/10 05:09:54;;;;;;;3.70;2.80;;;;;;;7.45;86.34;99538.88;5038214;28;22227;-69
2023/11/10 05:12:20;;;;;;;4.77;3.33;;;;;;;7.47;86.30;99532.22;5036108;28;20600;-72
2023/11/10 05:14:47;;;;;;;3.60;2.77;;;;;;;7.47;85.77;99534.84;5038056;28;20472;-71
2023/11/10 05:17:14;;;;;;;5.07;3.07;;;;;;;7.48;85.52;99532.97;5033464;28;20219;-71
2023/11/10 05:19:40;;;;;;;5.63;2.97;;;;;;;7.49;86.36;99540.50;5035714;28;20222;-71
2023/11/10 05:22:07;;;;;;;3.60;2.93;;;;;;;7.49;86.13;99532.63;5028461;28;20226;-69
2023/11/10 05:24:33;;;;;;;4.27;2.97;;;;;;;7.50;85.59;99528.91;5032585;28;20679;-71
2023/11/10 05:27:00;;;;;;;3.87;2.80;;;;;;;7.54;85.77;99531.63;5036977;28;20592;-70
2023/11/10 05:29:26;;;;;;;4.97;3.20;;;;;;;7.54;85.93;99537.66;5033375;28;20515;-71
2023/11/10 05:31:54;;;;;;;4.03;2.83;;;;;;;7.57;86.22;99538.88;5032720;28;20578;-71
2023/11/10 05:34:22;;;;;;;3.70;2.83;;;;;;;7.59;86.34;99544.53;5033140;28;24311;-71
2023/11/10 05:36:48;;;;;;;7.67;2.90;;;;;;;7.62;85.81;99534.13;5037453;28;20200;-71
2023/11/10 05:39:15;;;;;;;6.83;3.20;;;;;;;7.67;86.17;99539.16;5032700;28;20708;-71
2023/11/10 05:41:44;;;;;;;5.03;3.30;;;;;;;7.73;86.08;99550.22;5032801;28;20262;-70
2023/11/10 05:44:11;;;;;;;4.03;3.23;;;;;;;7.76;85.77;99552.22;5028540;28;20219;-71
2023/11/10 05:46:38;;;;;;;4.77;3.50;;;;;;;7.81;85.75;99549.34;5012138;28;20211;-71
2023/11/10 05:49:05;;;;;;;3.97;3.10;;;;;;;7.84;85.31;99541.56;5034582;28;20204;-71
2023/11/10 05:51:33;;;;;;;4.93;3.20;;;;;;;7.89;85.30;99543.97;5034516;28;20246;-70
2023/11/10 05:53:59;;;;;;;8.00;3.50;;;;;;;7.93;85.53;99552.69;5030549;28;20873;-71
2023/11/10 05:56:26;;;;;;;4.20;3.23;;;;;;;7.98;85.28;99564.84;5026231;28;20203;-71
2023/11/10 05:58:52;;;;;;;3.77;3.37;;;;;;;8.01;85.60;99548.41;5032663;28;20677;-70
2023/11/10 06:01:23;;;;;;;3.80;3.13;;;;;;;8.04;84.75;99556.41;5031320;28;20637;-70
2023/11/10 06:03:49;;;;;;;4.33;3.00;;;;;;;8.08;84.66;99551.25;5035161;28;20235;-71
2023/11/10 06:06:16;;;;;;;4.07;2.90;;;;;;;8.11;84.49;99553.19;5025658;28;20208;-70
2023/11/10 06:08:43;;;;;;;4.13;2.87;;;;;;;8.13;84.49;99554.41;5009182;28;20227;-70
2023/11/10 06:11:20;;;;;;;3.77;2.70;;;;;;;8.14;84.34;99548.03;5019393;28;20648;-71
2023/11/10 06:13:46;;;;;;;3.80;2.90;;;;;;;8.18;84.22;99564.69;5038192;28;20309;-71
2023/11/10 06:16:13;;;;;;;5.60;3.10;;;;;;;8.18;84.12;99556.78;5034319;28;20210;-70
2023/11/10 06:18:40;;;;;;;4.57;3.27;;;;;;;8.20;84.25;99562.53;5034490;28;20684;-71
2023/11/10 06:21:06;;;;;;;3.80;2.77;;;;;;;8.20;84.06;99565.16;5038001;28;20225;-71
2023/11/10 06:23:33;;;;;;;5.03;3.10;;;;;;;8.21;84.31;99558.78;5036132;28;20232;-71
2023/11/10 06:26:01;;;;;;;3.47;2.77;;;;;;;8.20;84.21;99552.00;5032039;28;20205;-72
2023/11/10 06:28:27;;;;;;;4.40;2.90;;;;;;;8.20;83.71;99561.75;5033274;28;20213;-71
2023/11/10 06:30:56;;;;;;;3.33;3.03;;;;;;;8.20;83.97;99567.78;5012665;28;20213;-71
2023/11/10 06:33:22;;;;;;;3.50;3.03;;;;;;;8.21;83.98;99560.66;5035625;28;20227;-71
2023/11/10 06:35:49;;;;;;;4.83;3.40;;;;;;;8.21;84.17;99568.53;5037564;28;20211;-69
2023/11/10 06:38:15;;;;;;;5.57;4.30;;;;;;;8.23;83.50;99575.00;5035503;28;20240;-70
2023/11/10 06:40:41;;;;;;;5.37;3.77;;;;;;;8.25;83.93;99572.03;5039118;28;20693;-71
2023/11/10 06:43:09;;;;;;;6.90;4.20;;;;;;;8.27;83.70;99575.88;5040148;28;20271;-71
2023/11/10 06:45:36;;;;;;;5.20;4.30;;;;;;;8.31;83.97;99584.63;5040600;28;20207;-71
2023/11/10 06:48:03;;;;;;;5.83;4.27;;;;;;;8.34;83.89;99577.94;5037888;28;20201;-71
2023/11/10 06:50:31;;;;;;;5.30;4.10;;;;;;;8.38;83.97;99586.69;5039208;28;21739;-71
2023/11/10 06:52:58;;;;;;;6.50;4.03;;;;;;;8.42;84.06;99572.53;5039434;28;20312;-70
2023/11/10 06:55:24;;;;;;;5.33;4.27;;;;;;;8.47;83.64;99582.03;5036455;28;20220;-71
2023/11/10 06:57:51;;;;;;;5.07;3.83;;;;;;;8.50;83.65;99587.38;5034871;28;20690;-71
2023/11/10 07:00:19;;;;;;;4.20;3.80;;;;;;;8.54;83.29;99588.25;5040555;28;20216;-71
2023/11/10 07:02:45;;;;;;;4.47;3.90;;;;;;;8.58;83.20;99585.72;5035240;28;20225;-71
2023/11/10 07:05:12;;;;;;;4.23;3.83;;;;;;;8.60;82.68;99586.16;5036009;28;20273;-70
2023/11/10 07:07:38;;;;;;;4.10;3.30;;;;;;;8.62;82.85;99583.94;5036255;28;20247;-71
2023/11/10 07:10:07;;;;;;;4.90;3.97;;;;;;;8.63;82.87;99588.09;5036650;28;20213;-70
2023/11/10 07:12:33;;;;;;;4.47;3.90;;;;;;;8.65;82.36;99591.94;5036578;28;20201;-71
2023/11/10 07:15:00;;;;;;;4.33;3.93;;;;;;;8.67;82.63;99584.47;5036637;28;20232;-72
2023/11/10 07:17:27;;;;;;;6.23;3.63;;;;;;;8.68;83.13;99583.38;5035856;28;20202;-71
2023/11/10 07:19:55;;;;;;;4.50;4.10;;;;;;;8.72;82.86;99584.25;5037839;28;20225;-70
2023/11/10 07:22:21;;;;;;;4.87;3.77;;;;;;;8.74;82.74;99582.03;5036680;28;20571;-70
2023/11/10 07:24:47;;;;;;;4.07;3.60;;;;;;;8.78;82.85;99574.22;5038101;28;20252;-71
2023/11/10 07:27:14;;;;;;;5.80;4.00;;;;;;;8.83;83.04;99581.88;5035700;28;20421;-70
2023/11/10 07:29:40;;;;;;;5.50;3.40;;;;;;;8.86;82.97;99581.94;5039183;28;20736;-70
2023/11/10 07:32:07;;;;;;;4.73;3.97;;;;;;;8.89;82.69;99578.66;5038288;28;20555;-70
2023/11/10 07:34:35;;;;;;;7.37;3.57;;;;;;;8.93;82.93;99584.78;5037532;28;20713;-71
2023/11/10 07:37:01;;;;;;;7.30;3.70;;;;;;;8.96;82.52;99576.19;5038689;28;20609;-71
2023/11/10 07:39:30;;;;;;;4.33;3.83;;;;;;;8.99;83.00;99580.03;5040631;28;20218;-71
2023/11/10 07:41:56;;;;;;;4.27;3.70;;;;;;;9.04;81.66;99582.41;5038241;28;20210;-70
2023/11/10 07:44:23;;;;;;;4.13;3.77;;;;;;;9.07;81.56;99584.38;5034966;28;20309;-70
2023/11/10 07:46:50;;;;;;;3.90;3.50;;;;;;;9.10;81.73;99586.31;5037503;28;20348;-71
2023/11/10 07:49:17;;;;;;;3.83;3.43;;;;;;;9.13;81.25;99586.41;5038593;28;20372;-71
2023/11/10 07:51:44;;;;;;;5.97;3.50;;;;;;;9.17;81.85;99584.63;5036663;28;20212;-70
2023/11/10 07:54:16;;;;;;;7.57;3.70;;;;;;;9.21;81.84;99576.81;5038454;28;20219;-70
2023/11/10 07:56:42;;;;;;;5.43;3.90;;;;;;;9.24;81.93;99576.91;5033745;28;20234;-70
2023/11/10 07:59:09;;;;;;;3.73;3.43;;;;;;;9.27;80.88;99575.47;5032773;28;20226;-69
2023/11/10 08:01:36;;;;;;;5.00;3.83;;;;;;;9.31;81.09;99571.06;5041036;28;20570;-71
2023/11/10 08:04:02;;;;;;;4.30;3.90;;;;;;;9.32;80.95;99570.69;5036795;28;20311;-71
2023/11/10 08:06:28;;;;;;;4.23;3.83;;;;;;;9.36;81.38;99570.75;5034135;28;20203;-71
2023/11/10 08:08:57;;;;;;;8.40;4.37;;;;;;;9.40;80.55;99579.53;5035054;28;20210;-69
2023/11/10 08:11:23;;;;;;;11.60;5.80;;;;;;;9.41;81.22;99579.19;5034017;28;20212;-71
2023/11/10 08:13:49;;;;;;;8.53;6.33;;;;;;;9.44;81.06;99583.78;5035172;28;20376;-70
2023/11/10 08:16:16;;;;;;;5.93;4.20;;;;;;;9.47;80.43;99583.09;5039024;28;20218;-71
2023/11/10 08:18:42;;;;;;;4.60;4.10;;;;;;;9.51;80.25;99577.88;5037741;28;20207;-71
2023/11/10 08:21:16;;;;;;;5.10;4.63;;;;;;;9.54;80.44;99580.63;5035576;28;20596;-70
2023/11/10 08:23:42;;;;;;;5.73;3.97;;;;;;;9.56;79.92;99583.69;5035639;28;20259;-71
2023/11/10 08:26:10;;;;;;;5.20;4.00;;;;;;;9.59;80.21;99583.00;5034305;28;20210;-70
2023/11/10 08:28:36;;;;;;;6.17;4.40;;;;;;;9.62;80.45;99579.66;5022232;28;20565;-71
2023/11/10 08:31:03;;;;;;;5.20;4.13;;;;;;;9.65;80.30;99581.63;5035736;28;20242;-71
2023/11/10 08:33:30;;;;;;;4.30;3.67;;;;;;;9.68;80.14;99586.19;5036709;28;20227;-69
2023/11/10 08:35:57;;;;;;;4.47;3.87;;;;;;;9.72;80.57;99581.00;5037705;28;20214;-71
2023/11/10 08:38:23;;;;;;;5.33;3.50;;;;;;;9.75;80.59;99585.59;5037565;28;20572;-71
2023/11/10 08:40:49;;;;;;;4.63;4.00;;;;;;;9.77;80.28;99589.44;5038796;28;20290;-70
2023/11/10 08:43:17;;;;;;;3.87;3.50;;;;;;;9.81;79.63;99586.88;5037542;28;20232;-70
2023/11/10 08:45:43;;;;;;;3.93;3.57;;;;;;;9.85;80.02;99582.44;5034139;28;20550;-70
2023/11/10 08:48:10;;;;;;;6.23;4.77;;;;;;;9.89;79.32;99594.56;5038462;28;20217;-70
2023/11/10 08:50:39;;;;;;;4.30;3.87;;;;;;;9.93;79.89;99595.44;5037195;28;20200;-71
2023/11/10 08:53:06;;;;;;;4.47;4.03;;;;;;;9.97;79.52;99591.00;5034756;28;20231;-71
2023/11/10 08:55:32;;;;;;;3.70;3.40;;;;;;;10.03;79.50;99594.88;5037031;28;20306;-71
2023/11/10 08:57:59;;;;;;;4.17;3.77;;;;;;;10.07;79.21;99597.63;5038086;28;20675;-70
2023/11/10 09:00:26;;;;;;;4.27;3.27;;;;;;;10.12;78.46;99606.03;5021745;28;20636;-70
2023/11/10 09:02:55;;;;;;;3.30;3.00;;;;;;;10.16;79.55;99598.19;5036919;28;20223;-71
2023/11/10 09:05:22;;;;;;;3.63;3.30;;;;;;;10.22;78.80;99604.72;5031438;28;20693;-71
2023/11/10 09:07:49;;;;;;;3.63;3.33;;;;;;;10.27;79.43;99601.81;5038602;28;20208;-70
2023/11/10 09:10:16;;;;;;;4.07;2.90;;;;;;;10.32;77.90;99609.47;5036547;28;20216;-70
2023/11/10 09:12:43;;;;;;;4.23;3.83;;;;;;;10.37;77.40;99604.69;5036849;28;20203;-70
2023/11/10 09:15:12;;;;;;;4.00;3.60;;;;;;;10.43;77.77;99605.94;5035299;28;20235;-71
2023/11/10 09:17:39;;;;;;;8.20;6.57;;;;;;;10.50;77.19;99608.69;5036267;28;20224;-70
2023/11/10 09:20:07;;;;;;;5.50;3.97;;;;;;;10.56;77.08;99611.84;5035808;28;20616;-71
2023/11/10 09:22:35;;;;;;;3.67;3.27;;;;;;;10.62;77.08;99605.16;5022368;28;20211;-71
2023/11/10 09:25:01;;;;;;;3.10;2.80;;;;;;;10.68;76.19;99601.13;5038026;28;20206;-71
2023/11/10 09:27:28;;;;;;;3.07;2.77;;;;;;;10.77;76.31;99601.66;5034832;28;20209;-70
2023/11/10 09:29:54;;;;;;;3.30;3.00;;;;;;;10.83;75.58;99603.69;5038421;28;20204;-71
2023/11/10 09:32:21;;;;;;;2.93;2.53;;;;;;;10.91;76.53;99599.25;5038650;28;20705;-69
2023/11/10 09:34:49;;;;;;;3.40;3.10;;;;;;;10.98;76.52;99602.06;5040194;28;20234;-69
2023/11/10 09:37:15;;;;;;;3.93;2.90;;;;;;;11.06;74.95;99599.19;5033883;28;20224;-68
2023/11/10 09:39:42;;;;;;;3.47;3.17;;;;;;;11.11;74.62;99590.97;5036918;28;20295;-71
2023/11/10 09:42:10;;;;;;;2.90;2.60;;;;;;;11.15;76.97;99591.00;5036025;28;20218;-71
2023/11/10 09:44:39;;;;;;;3.07;2.70;;;;;;;11.17;73.17;99586.13;5037026;28;20312;-70
2023/11/10 09:47:07;;;;;;;2.00;1.80;;;;;;;11.21;72.87;99582.44;5017842;28;20206;-70
2023/11/10 09:49:34;;;;;;;4.30;2.97;;;;;;;11.25;71.30;99582.50;5040884;28;20686;-71
2023/11/10 09:52:03;;;;;;;6.37;3.43;;;;;;;11.27;70.54;99577.63;5039057;28;20608;-71
2023/11/10 09:54:31;;;;;;;2.03;1.77;;;;;;;11.30;73.77;99577.69;5038374;28;20222;-69
2023/11/10 09:56:58;;;;;;;2.67;2.30;;;;;;;11.35;71.91;99587.19;5034419;28;20601;-71
2023/11/10 09:59:27;;;;;;;3.57;2.57;;;;;;;11.40;71.96;99589.53;5037014;28;20666;-71
2023/11/10 10:01:54;;;;;;;1.90;1.80;;;;;;;11.40;69.99;99579.75;5042948;28;20204;-71
2023/11/10 10:04:20;;;;;;;2.63;1.77;;;;;;;11.42;70.12;99574.84;5039370;28;20233;-71
2023/11/10 10:06:51;;;;;;;2.50;1.80;;;;;;;11.49;71.98;99574.94;5041189;28;20386;-71
2023/11/10 10:09:19;;;;;;;2.30;1.50;;;;;;;11.56;69.79;99571.66;5037216;28;20209;-70
2023/11/10 10:11:45;;;;;;;1.90;1.20;;;;;;;11.60;72.78;99570.59;5041374;28;20202;-69
2023/11/10 10:14:12;;;;;;;1.53;1.43;;;;;;;11.64;70.27;99565.41;5040016;28;20230;-71
2023/11/10 10:16:39;;;;;;;2.73;1.90;;;;;;;11.67;69.72;99570.72;5038647;28;20214;-69
2023/11/10 10:19:06;;;;;;;1.73;1.20;;;;;;;11.67;69.36;99560.16;5042226;28;20217;-70
2023/11/10 10:21:40;;;;;;;5.90;1.17;;;;;;;11.65;69.35;99554.44;5040981;28;20218;-70
2023/11/10 10:24:07;;;;;;;1.27;1.17;;;;;;;11.66;70.01;99553.34;5040225;28;20279;-71
2023/11/10 10:26:35;;;;;;;1.80;1.17;;;;;;;11.63;69.64;99555.91;5041051;28;20217;-68
2023/11/10 10:29:02;;;;;;;1.30;1.20;;;;;;;11.62;69.31;99557.81;5039098;28;20850;-71
2023/11/10 10:31:29;;;;;;;1.47;1.20;;;;;;;11.62;68.80;99559.69;5038619;28;20211;-71
2023/11/10 10:33:55;;;;;;;1.60;1.00;;;;;;;11.60;67.39;99557.38;5042610;28;20227;-71
2023/11/10 10:36:22;;;;;;;2.37;1.20;;;;;;;11.62;69.05;99564.97;5043035;28;20202;-71
2023/11/10 10:38:53;;;;;;;3.13;1.40;;;;;;;11.65;70.52;99553.69;5042281;28;20210;-70
2023/11/10 10:41:20;;;;;;;1.63;1.20;;;;;;;11.75;70.76;99553.09;5036180;28;20264;-70
2023/11/10 10:43:50;;;;;;;1.27;0.80;;;;;;;11.84;69.21;99546.41;5041102;28;20638;-71
2023/11/10 10:46:19;;;;;;;1.13;1.03;;;;;;;11.99;69.29;99545.47;5041481;28;20214;-70
2023/11/10 10:48:49;;;;;;;1.23;1.00;;;;;;;12.10;68.42;99546.34;5039112;28;20202;-70
2023/11/10 10:51:16;;;;;;;2.10;0.90;;;;;;;12.22;69.67;99551.41;5042142;28;20207;-70
2023/11/10 10:53:44;;;;;;;1.47;1.20;;;;;;;12.30;69.38;99560.19;5036811;28;20608;-71
2023/11/10 10:56:14;;;;;;;2.47;1.10;;;;;;;12.33;69.52;99554.97;5040973;28;21061;-69
2023/11/10 10:58:41;;;;;;;1.97;0.90;;;;;;;12.31;65.51;99553.78;5039942;28;20331;-71
2023/11/10 11:01:11;;;;;;;1.27;1.10;;;;;;;12.35;65.18;99555.34;5040100;28;20212;-70
2023/11/10 11:03:54;;;;;;;1.43;0.73;;;;;;;12.33;65.39;99543.59;5036581;28;20227;-71
2023/11/10 11:06:32;;;;;;;0.80;0.80;;;;;;;12.37;64.98;99542.50;5037345;28;20213;-71
2023/11/10 11:09:24;;;;;;;1.87;0.80;;;;;;;12.36;65.95;99535.69;5039930;28;20199;-68
2023/11/10 11:12:20;;;;;;;1.67;0.93;;;;;;;12.38;66.81;99535.34;5040700;28;20447;-71
2023/11/10 11:14:55;;;;;;;1.83;0.70;;;;;;;12.38;65.89;99535.34;5042185;28;20679;-71
2023/11/10 11:18:11;;;;;;;1.40;0.87;;;;;;;12.35;65.73;99542.13;5038180;28;20675;-71
2023/11/10 11:20:39;;;;;;;1.13;0.87;;;;;;;12.34;64.49;99529.22;5038871;28;20226;-71
2023/11/10 11:23:09;;;;;;;1.33;0.77;;;;;;;12.37;67.89;99539.13;5040593;28;20307;-70
2023/11/10 11:25:37;;;;;;;1.20;0.70;;;;;;;12.36;67.94;99533.03;5042023;28;20217;-70
2023/11/10 11:28:04;;;;;;;0.70;0.70;;;;;;;12.39;68.24;99542.16;5039386;28;20207;-70
2023/11/10 11:30:34;;;;;;;0.97;0.60;;;;;;;12.31;64.34;99530.72;5039075;28;20194;-70
2023/11/10 11:33:05;;;;;;;1.27;0.60;;;;;;;12.30;67.15;99528.44;5035824;28;20228;-70
2023/11/10 11:35:43;;;;;;;0.77;0.50;;;;;;;12.21;67.46;99536.66;5036234;28;20234;-71
2023/11/10 11:38:10;;;;;;;0.70;0.50;;;;;;;12.17;67.52;99533.19;5044483;28;20207;-70
2023/11/10 11:40:36;;;;;;;0.50;0.50;;;;;;;12.08;69.13;99526.66;5039608;28;20199;-69